createdAt,value
2023-02-05T00:01:03.279Z,-1.90
2023-02-05T00:03:35.313Z,-1.90
2023-02-05T00:06:08.406Z,-1.90
2023-02-05T00:08:38.524Z,-1.90
2023-02-05T00:11:10.394Z,-2.00
2023-02-05T00:13:41.496Z,-2.20
2023-02-05T00:16:12.757Z,-2.10
2023-02-05T00:18:43.122Z,-2.00
2023-02-05T00:21:16.801Z,-2.00
2023-02-05T00:23:47.291Z,-2.20
2023-02-05T00:26:17.415Z,-2.20
2023-02-05T00:28:48.474Z,-2.10
2023-02-05T00:31:22.500Z,-2.10
2023-02-05T00:33:54.193Z,-2.20
2023-02-05T00:36:27.480Z,-2.20
2023-02-05T00:38:57.481Z,-2.30
2023-02-05T00:41:27.753Z,-2.30
2023-02-05T00:43:57.685Z,-2.20
2023-02-05T00:46:27.611Z,-2.20
2023-02-05T00:48:57.522Z,-2.30
2023-02-05T00:51:30.075Z,-2.50
2023-02-05T00:53:59.960Z,-2.50
2023-02-05T00:56:29.965Z,-2.50
2023-02-05T00:59:00.177Z,-2.60
2023-02-05T01:01:30.193Z,-2.60
2023-02-05T01:04:00.149Z,-2.60
2023-02-05T01:06:32.671Z,-2.50
2023-02-05T01:09:02.527Z,-2.40
2023-02-05T01:11:32.582Z,-2.40
2023-02-05T01:14:02.475Z,-2.30
2023-02-05T01:16:32.415Z,-2.30
2023-02-05T01:19:02.341Z,-2.30
2023-02-05T01:21:36.363Z,-2.30
2023-02-05T01:24:06.763Z,-2.50
2023-02-05T01:26:36.670Z,-2.60
2023-02-05T01:29:06.692Z,-2.50
2023-02-05T01:31:36.754Z,-2.40
2023-02-05T01:34:06.705Z,-2.40
2023-02-05T01:36:39.205Z,-2.40
2023-02-05T01:39:09.104Z,-2.40
2023-02-05T01:41:41.979Z,-2.50
2023-02-05T01:44:15.077Z,-2.50
2023-02-05T01:46:46.790Z,-2.40
2023-02-05T01:49:21.241Z,-2.50
2023-02-05T01:51:56.711Z,-2.50
2023-02-05T01:54:29.886Z,-2.50
2023-02-05T01:57:08.258Z,-2.60
2023-02-05T01:59:42.023Z,-2.70
2023-02-05T02:02:12.067Z,-2.70
2023-02-05T02:04:44.921Z,-2.60
2023-02-05T02:07:21.278Z,-2.60
2023-02-05T02:09:52.296Z,-2.70
2023-02-05T02:12:26.930Z,-2.90
2023-02-05T02:14:59.689Z,-2.80
2023-02-05T02:17:30.989Z,-2.70
2023-02-05T02:20:07.371Z,-2.70
2023-02-05T02:22:55.159Z,-2.80
2023-02-05T02:26:06.974Z,-2.80
2023-02-05T02:28:43.743Z,-3.00
2023-02-05T02:31:17.944Z,-2.90
2023-02-05T02:33:53.476Z,-2.90
2023-02-05T02:36:32.366Z,-3.00
2023-02-05T02:39:11.007Z,-3.00
2023-02-05T02:41:50.874Z,-2.90
2023-02-05T02:44:31.107Z,-2.90
2023-02-05T02:47:06.942Z,-3.00
2023-02-05T02:49:42.348Z,-3.00
2023-02-05T02:52:16.237Z,-3.10
2023-02-05T02:54:50.796Z,-3.20
2023-02-05T02:57:21.833Z,-3.20
2023-02-05T02:59:58.292Z,-3.20
2023-02-05T03:02:31.582Z,-3.20
2023-02-05T03:05:06.533Z,-3.30
2023-02-05T03:07:41.017Z,-3.20
2023-02-05T03:10:17.025Z,-3.30
2023-02-05T03:12:47.131Z,-3.40
2023-02-05T03:15:19.785Z,-3.40
2023-02-05T03:17:49.769Z,-3.50
2023-02-05T03:20:25.786Z,-3.50
2023-02-05T03:22:56.354Z,-3.70
2023-02-05T03:25:28.191Z,-4.00
2023-02-05T03:27:59.323Z,-4.00
2023-02-05T03:30:40.621Z,-3.90
2023-02-05T03:33:30.452Z,-3.60
2023-02-05T03:36:09.656Z,-3.50
2023-02-05T03:38:54.894Z,-3.60
2023-02-05T03:41:53.538Z,-3.70
2023-02-05T03:44:39.936Z,-3.50
2023-02-05T03:47:24.553Z,-3.50
2023-02-05T03:50:03.712Z,-3.40
2023-02-05T03:52:37.942Z,-3.40
2023-02-05T03:55:11.816Z,-3.50
2023-02-05T03:57:48.225Z,-3.40
2023-02-05T04:00:19.179Z,-3.30
2023-02-05T04:02:51.705Z,-3.40
2023-02-05T04:05:23.099Z,-3.50
2023-02-05T04:07:53.525Z,-3.40
2023-02-05T04:10:23.446Z,-3.40
2023-02-05T04:12:53.357Z,-3.40
2023-02-05T04:15:23.210Z,-3.40
2023-02-05T04:17:57.929Z,-3.40
2023-02-05T04:20:27.970Z,-3.40
2023-02-05T04:22:57.865Z,-3.70
2023-02-05T04:25:27.777Z,-3.80
2023-02-05T04:27:57.720Z,-3.80
2023-02-05T04:30:27.792Z,-3.70
2023-02-05T04:33:00.272Z,-3.60
2023-02-05T04:35:30.281Z,-3.50
2023-02-05T04:38:00.125Z,-3.40
2023-02-05T04:40:30.170Z,-3.40
2023-02-05T04:43:00.089Z,-3.40
2023-02-05T04:45:31.338Z,-3.30
2023-02-05T04:48:06.659Z,-3.30
2023-02-05T04:50:36.867Z,-3.20
2023-02-05T04:53:06.826Z,-3.10
2023-02-05T04:55:37.065Z,-3.10
2023-02-05T04:58:06.994Z,-3.20
2023-02-05T05:00:36.925Z,-3.20
2023-02-05T05:03:09.485Z,-3.10
2023-02-05T05:05:39.389Z,-3.10
2023-02-05T05:08:09.239Z,-3.10
2023-02-05T05:10:41.482Z,-3.20
2023-02-05T05:13:11.344Z,-3.10
2023-02-05T05:15:41.300Z,-3.10
2023-02-05T05:18:13.808Z,-3.00
2023-02-05T05:20:43.677Z,-3.00
2023-02-05T05:23:13.589Z,-3.00
2023-02-05T05:25:45.417Z,-3.10
2023-02-05T05:28:16.943Z,-3.10
2023-02-05T05:30:48.944Z,-3.10
2023-02-05T05:33:21.528Z,-3.10
2023-02-05T05:35:51.423Z,-3.30
2023-02-05T05:38:21.340Z,-3.40
2023-02-05T05:41:09.682Z,-3.30
2023-02-05T05:43:51.526Z,-3.10
2023-02-05T05:46:24.729Z,-3.00
2023-02-05T05:48:59.581Z,-3.00
2023-02-05T05:51:32.609Z,-3.10
2023-02-05T05:54:03.374Z,-3.10
2023-02-05T05:56:33.270Z,-3.00
2023-02-05T05:59:03.117Z,-3.10
2023-02-05T06:01:33.066Z,-3.00
2023-02-05T06:04:05.609Z,-3.00
2023-02-05T06:06:36.082Z,-2.90
2023-02-05T06:09:06.156Z,-2.90
2023-02-05T06:11:36.044Z,-2.80
2023-02-05T06:14:05.989Z,-2.80
2023-02-05T06:16:35.862Z,-2.90
2023-02-05T06:19:08.292Z,-3.10
2023-02-05T06:21:38.216Z,-3.40
2023-02-05T06:24:08.998Z,-3.50
2023-02-05T06:26:38.906Z,-3.30
2023-02-05T06:29:08.775Z,-3.30
2023-02-05T06:31:38.732Z,-3.50
2023-02-05T06:34:11.259Z,-3.30
2023-02-05T06:36:41.175Z,-3.10
2023-02-05T06:39:11.143Z,-3.00
2023-02-05T06:41:41.017Z,-3.00
2023-02-05T06:44:11.023Z,-2.90
2023-02-05T06:46:40.927Z,-2.80
2023-02-05T06:49:13.403Z,-2.70
2023-02-05T06:51:43.298Z,-2.80
2023-02-05T06:54:13.187Z,-2.70
2023-02-05T06:56:43.146Z,-2.70
2023-02-05T06:59:13.245Z,-2.80
2023-02-05T07:01:43.104Z,-2.80
2023-02-05T07:04:15.609Z,-2.80
2023-02-05T07:06:45.579Z,-2.70
2023-02-05T07:09:15.511Z,-2.70
2023-02-05T07:11:45.440Z,-2.70
2023-02-05T07:14:15.306Z,-2.70
2023-02-05T07:16:45.275Z,-2.70
2023-02-05T07:19:17.774Z,-2.60
2023-02-05T07:21:47.976Z,-2.60
2023-02-05T07:24:18.118Z,-2.50
2023-02-05T07:26:48.091Z,-2.50
2023-02-05T07:29:18.025Z,-2.50
2023-02-05T07:31:47.925Z,-2.50
2023-02-05T07:34:21.478Z,-2.50
2023-02-05T07:36:53.716Z,-2.40
2023-02-05T07:39:23.596Z,-2.40
2023-02-05T07:41:53.987Z,-2.40
2023-02-05T07:44:23.972Z,-2.30
2023-02-05T07:46:53.922Z,-2.30
2023-02-05T07:49:26.826Z,-2.30
2023-02-05T07:51:56.692Z,-2.20
2023-02-05T07:54:27.248Z,-2.20
2023-02-05T07:56:57.318Z,-2.20
2023-02-05T07:59:27.318Z,-2.10
2023-02-05T08:01:57.295Z,-2.20
2023-02-05T08:04:29.860Z,-2.10
2023-02-05T08:06:59.744Z,-2.10
2023-02-05T08:09:30.033Z,-2.10
2023-02-05T08:12:00.037Z,-2.00
2023-02-05T08:14:31.282Z,-2.00
2023-02-05T08:17:01.266Z,-2.00
2023-02-05T08:19:33.856Z,-2.00
2023-02-05T08:22:03.742Z,-2.00
2023-02-05T08:24:34.880Z,-2.00
2023-02-05T08:27:04.784Z,-2.00
2023-02-05T08:29:34.675Z,-2.00
2023-02-05T08:32:04.556Z,-1.90
2023-02-05T08:34:38.269Z,-1.90
2023-02-05T08:37:08.170Z,-1.90
2023-02-05T08:39:38.446Z,-1.80
2023-02-05T08:42:08.534Z,-1.80
2023-02-05T08:44:38.441Z,-1.80
2023-02-05T08:47:08.343Z,-1.70
2023-02-05T08:49:40.948Z,-1.70
2023-02-05T08:52:10.835Z,-1.60
2023-02-05T08:54:41.883Z,-1.60
2023-02-05T08:57:12.089Z,-1.60
2023-02-05T08:59:42.007Z,-1.60
2023-02-05T09:02:16.997Z,-1.50
2023-02-05T09:04:51.342Z,-1.50
2023-02-05T09:07:24.487Z,-1.40
2023-02-05T09:09:54.795Z,-1.40
2023-02-05T09:12:24.778Z,-1.30
2023-02-05T09:14:54.640Z,-1.30
2023-02-05T09:17:24.562Z,-1.30
2023-02-05T09:19:57.015Z,-1.30
2023-02-05T09:22:26.899Z,-1.20
2023-02-05T09:24:56.823Z,-1.20
2023-02-05T09:27:26.754Z,-1.10
2023-02-05T09:29:56.613Z,-1.10
2023-02-05T09:32:27.059Z,-1.10
2023-02-05T09:34:59.522Z,-1.10
2023-02-05T09:37:29.378Z,-1.10
2023-02-05T09:43:02.247Z,-1.00
2023-02-05T09:45:42.253Z,-1.00
2023-02-05T09:48:34.681Z,-0.90
2023-02-05T09:51:10.383Z,-0.90
2023-02-05T09:53:45.829Z,-0.80
2023-02-05T09:56:17.812Z,-0.80
2023-02-05T09:58:51.597Z,-0.80
2023-02-05T10:01:28.971Z,-0.80
2023-02-05T10:04:04.148Z,-0.70
2023-02-05T10:06:49.983Z,-0.70
2023-02-05T10:09:50.937Z,-0.70
2023-02-05T10:12:37.897Z,-0.70
2023-02-05T10:15:25.120Z,-0.60
2023-02-05T10:18:09.165Z,-0.60
2023-02-05T10:20:56.814Z,-0.50
2023-02-05T10:23:59.097Z,-0.50
2023-02-05T10:26:40.859Z,-0.40
2023-02-05T10:29:22.602Z,-0.30
2023-02-05T10:32:10.458Z,-0.20
2023-02-05T10:34:55.169Z,-0.10
2023-02-05T10:37:37.532Z,0.00
2023-02-05T10:40:19.348Z,0.00
2023-02-05T10:42:54.238Z,0.00
2023-02-05T10:45:30.379Z,0.10
2023-02-05T10:48:22.732Z,0.10
2023-02-05T10:50:59.708Z,0.10
2023-02-05T10:53:31.707Z,0.10
2023-02-05T10:56:06.911Z,0.20
2023-02-05T10:58:43.991Z,0.20
2023-02-05T11:01:18.850Z,0.20
2023-02-05T11:03:58.927Z,0.30
2023-02-05T11:06:32.253Z,0.30
2023-02-05T11:09:02.446Z,0.40
2023-02-05T11:11:37.187Z,0.40
2023-02-05T11:14:10.140Z,0.50
2023-02-05T11:16:44.796Z,0.50
2023-02-05T11:19:24.219Z,0.40
2023-02-05T11:21:58.049Z,0.50
2023-02-05T11:24:32.827Z,0.60
2023-02-05T11:27:33.385Z,0.70
2023-02-05T11:30:49.579Z,0.70
2023-02-05T11:33:27.944Z,0.70
2023-02-05T11:36:02.902Z,0.70
2023-02-05T11:38:45.451Z,0.80
2023-02-05T11:41:29.839Z,0.80
2023-02-05T11:44:06.475Z,0.60
2023-02-05T11:46:47.410Z,0.70
2023-02-05T11:49:25.247Z,0.70
2023-02-05T11:51:58.689Z,0.80
2023-02-05T11:54:32.640Z,0.80
2023-02-05T11:57:10.486Z,0.80
2023-02-05T11:59:44.743Z,0.80
2023-02-05T12:02:37.726Z,0.90
2023-02-05T12:05:21.312Z,0.90
2023-02-05T12:07:58.285Z,0.90
2023-02-05T12:10:38.149Z,0.90
2023-02-05T12:13:18.551Z,0.90
2023-02-05T12:16:02.894Z,1.00
2023-02-05T12:18:48.504Z,1.00
2023-02-05T12:21:30.021Z,1.00
2023-02-05T12:24:47.653Z,1.10
2023-02-05T12:27:35.027Z,1.00
2023-02-05T12:30:29.248Z,1.10
2023-02-05T12:33:30.682Z,1.20
2023-02-05T12:36:20.526Z,1.10
2023-02-05T12:39:02.921Z,1.10
2023-02-05T12:41:43.822Z,1.10
2023-02-05T12:44:31.954Z,1.10
2023-02-05T12:47:19.884Z,1.10
2023-02-05T12:50:15.136Z,1.10
2023-02-05T12:53:02.978Z,1.10
2023-02-05T12:55:51.172Z,1.20
2023-02-05T12:58:22.838Z,1.10
2023-02-05T13:00:57.766Z,1.10
2023-02-05T13:03:36.539Z,1.20
2023-02-05T13:06:15.934Z,1.20
2023-02-05T13:08:52.063Z,1.10
2023-02-05T13:11:27.238Z,1.10
2023-02-05T13:14:04.622Z,1.20
2023-02-05T13:16:41.479Z,1.20
2023-02-05T13:19:26.071Z,1.30
2023-02-05T13:22:13.087Z,1.30
2023-02-05T13:25:02.248Z,1.20
2023-02-05T13:27:49.890Z,1.30
2023-02-05T13:30:24.310Z,1.30
2023-02-05T13:33:00.280Z,1.30
2023-02-05T13:35:36.422Z,1.30
2023-02-05T13:38:42.235Z,1.40
2023-02-05T13:41:35.837Z,1.40
2023-02-05T13:44:47.090Z,1.40
2023-02-05T13:47:46.897Z,1.50
2023-02-05T13:50:49.144Z,1.50
2023-02-05T13:53:34.430Z,1.50
2023-02-05T13:56:25.207Z,1.60
2023-02-05T13:58:57.634Z,1.60
2023-02-05T14:01:34.551Z,1.60
2023-02-05T14:04:09.439Z,1.60
2023-02-05T14:06:41.336Z,1.60
2023-02-05T14:09:25.846Z,1.60
2023-02-05T14:11:58.956Z,1.60
2023-02-05T14:14:35.114Z,1.50
2023-02-05T14:17:41.454Z,1.50
2023-02-05T14:20:45.605Z,1.50
2023-02-05T14:23:23.658Z,1.50
2023-02-05T14:26:14.138Z,1.40
2023-02-05T14:28:53.249Z,1.40
2023-02-05T14:31:51.492Z,1.40
2023-02-05T14:34:49.092Z,1.40
2023-02-05T14:37:38.224Z,1.40
2023-02-05T14:40:30.398Z,1.40
2023-02-05T14:43:17.579Z,1.30
2023-02-05T14:45:50.782Z,1.30
2023-02-05T14:48:27.836Z,1.30
2023-02-05T14:51:09.692Z,1.30
2023-02-05T14:53:41.040Z,1.30
2023-02-05T14:56:11.260Z,1.30
2023-02-05T14:58:45.282Z,1.30
2023-02-05T15:01:45.310Z,1.20
2023-02-05T15:04:31.601Z,1.20
2023-02-05T15:07:04.259Z,1.20
2023-02-05T15:09:44.537Z,1.20
2023-02-05T15:12:49.780Z,1.20
2023-02-05T15:15:35.892Z,1.20
2023-02-05T15:18:14.773Z,1.20
2023-02-05T15:20:50.460Z,1.20
2023-02-05T15:23:28.290Z,1.20
2023-02-05T15:26:01.906Z,1.20
2023-02-05T15:28:37.402Z,1.20
2023-02-05T15:31:23.338Z,1.10
2023-02-05T15:34:02.289Z,1.00
2023-02-05T15:36:39.485Z,1.00
2023-02-05T15:39:19.856Z,1.00
2023-02-05T15:41:51.457Z,0.90
2023-02-05T15:44:29.548Z,0.80
2023-02-05T15:47:05.742Z,0.80
2023-02-05T15:49:41.242Z,0.80
2023-02-05T15:52:17.169Z,0.70
2023-02-05T15:54:47.121Z,0.60
2023-02-05T15:57:24.028Z,0.50
2023-02-05T15:59:56.294Z,0.50
2023-02-05T16:02:31.369Z,0.40
2023-02-05T16:05:03.995Z,0.40
2023-02-05T16:07:43.534Z,0.30
2023-02-05T16:10:22.110Z,0.30
2023-02-05T16:13:17.431Z,0.30
2023-02-05T16:15:56.651Z,0.20
2023-02-05T16:18:40.608Z,0.10
2023-02-05T16:21:20.659Z,0.10
2023-02-05T16:23:57.428Z,0.10
2023-02-05T16:26:33.986Z,0.00
2023-02-05T16:29:11.692Z,-0.10
2023-02-05T16:31:50.514Z,-0.10
2023-02-05T16:34:25.329Z,-0.20
2023-02-05T16:36:58.680Z,-0.20
2023-02-05T16:39:32.013Z,-0.20
2023-02-05T16:42:08.386Z,-0.20
2023-02-05T16:44:40.567Z,-0.20
2023-02-05T16:47:18.568Z,-0.20
2023-02-05T16:49:53.297Z,-0.30
2023-02-05T16:52:34.365Z,-0.30
2023-02-05T16:55:15.963Z,-0.30
2023-02-05T16:57:47.624Z,-0.20
2023-02-05T17:00:25.405Z,-0.40
2023-02-05T17:02:58.041Z,-0.40
2023-02-05T17:05:34.868Z,-0.40
2023-02-05T17:08:07.326Z,-0.40
2023-02-05T17:10:53.217Z,-0.50
2023-02-05T17:13:32.374Z,-0.50
2023-02-05T17:16:23.501Z,-0.60
2023-02-05T17:19:01.459Z,-0.60
2023-02-05T17:21:36.906Z,-0.60
2023-02-05T17:24:09.592Z,-0.60
2023-02-05T17:26:43.421Z,-0.60
2023-02-05T17:29:18.705Z,-0.60
2023-02-05T17:31:48.727Z,-0.60
2023-02-05T17:34:18.625Z,-0.60
2023-02-05T17:36:51.566Z,-0.70
2023-02-05T17:39:21.460Z,-0.70
2023-02-05T17:42:07.838Z,-0.80
2023-02-05T17:44:38.429Z,-0.80
2023-02-05T17:47:09.391Z,-0.90
2023-02-05T17:49:39.310Z,-0.90
2023-02-05T17:52:12.631Z,-0.90
2023-02-05T17:54:42.642Z,-1.00
2023-02-05T17:57:21.120Z,-1.00
2023-02-05T17:59:52.222Z,-1.00
2023-02-05T18:02:22.261Z,-1.10
2023-02-05T18:04:52.184Z,-1.10
2023-02-05T18:07:32.216Z,-1.10
2023-02-05T18:10:02.389Z,-1.20
2023-02-05T18:12:32.548Z,-1.10
2023-02-05T18:15:02.463Z,-1.10
2023-02-05T18:17:32.792Z,-1.20
2023-02-05T18:20:02.901Z,-1.30
2023-02-05T18:22:35.442Z,-1.30
2023-02-05T18:25:05.382Z,-1.30
2023-02-05T18:27:35.989Z,-1.30
2023-02-05T18:30:06.460Z,-1.30
2023-02-05T18:32:36.474Z,-1.30
2023-02-05T18:35:06.727Z,-1.30
2023-02-05T18:37:39.401Z,-1.40
2023-02-05T18:40:10.887Z,-1.40
2023-02-05T18:42:41.432Z,-1.50
2023-02-05T18:45:12.620Z,-1.50
2023-02-05T18:47:42.594Z,-1.60
2023-02-05T18:50:12.922Z,-1.60
2023-02-05T18:52:45.379Z,-1.60
2023-02-05T18:55:15.449Z,-1.60
2023-02-05T18:57:45.337Z,-1.50
2023-02-05T19:00:17.087Z,-1.50
2023-02-05T19:02:46.988Z,-1.60
2023-02-05T19:05:16.908Z,-1.60
2023-02-05T19:07:49.350Z,-1.70
2023-02-05T19:10:20.475Z,-1.80
2023-02-05T19:12:50.900Z,-1.80
2023-02-05T19:15:20.891Z,-1.90
2023-02-05T19:17:52.100Z,-1.90
2023-02-05T19:20:22.968Z,-1.90
2023-02-05T19:22:58.668Z,-2.00
2023-02-05T19:25:30.225Z,-2.00
2023-02-05T19:28:03.747Z,-2.00
2023-02-05T19:30:35.736Z,-2.00
2023-02-05T19:33:07.274Z,-2.00
2023-02-05T19:35:37.498Z,-1.90
2023-02-05T19:38:10.275Z,-1.90
2023-02-05T19:40:40.564Z,-2.00
2023-02-05T19:43:10.703Z,-2.00
2023-02-05T19:45:40.858Z,-2.10
2023-02-05T19:48:11.087Z,-2.10
2023-02-05T19:50:41.386Z,-2.20
2023-02-05T19:53:14.940Z,-2.10
2023-02-05T19:55:45.198Z,-2.10
2023-02-05T19:58:16.180Z,-2.10
2023-02-05T20:00:46.940Z,-2.10
2023-02-05T20:03:17.754Z,-2.10
2023-02-05T20:05:48.842Z,-2.10
2023-02-05T20:08:22.755Z,-2.10
2023-02-05T20:11:00.808Z,-2.10
2023-02-05T20:13:32.839Z,-2.20
2023-02-05T20:16:05.940Z,-2.10
2023-02-05T20:18:36.531Z,-2.10
2023-02-05T20:21:09.583Z,-2.20
2023-02-05T20:23:42.421Z,-2.30
2023-02-05T20:26:14.413Z,-2.30
2023-02-05T20:28:57.753Z,-2.40
2023-02-05T20:31:41.433Z,-2.50
2023-02-05T20:34:18.389Z,-2.50
2023-02-05T20:36:51.242Z,-2.60
2023-02-05T20:39:28.640Z,-2.60
2023-02-05T20:42:00.577Z,-2.60
2023-02-05T20:44:33.792Z,-2.70
2023-02-05T20:47:03.718Z,-2.60
2023-02-05T20:49:33.602Z,-2.60
2023-02-05T20:52:03.546Z,-2.60
2023-02-05T20:54:36.487Z,-2.70
2023-02-05T20:57:07.771Z,-2.60
2023-02-05T20:59:38.666Z,-2.60
2023-02-05T21:02:08.959Z,-2.70
2023-02-05T21:04:39.739Z,-2.80
2023-02-05T21:07:09.742Z,-2.90
2023-02-05T21:09:42.248Z,-2.90
2023-02-05T21:12:12.137Z,-2.90
2023-02-05T21:14:42.018Z,-2.90
2023-02-05T21:17:11.907Z,-3.10
2023-02-05T21:19:42.281Z,-3.20
2023-02-05T21:22:12.284Z,-3.20
2023-02-05T21:24:44.754Z,-3.20
2023-02-05T21:27:16.341Z,-3.10
2023-02-05T21:29:46.326Z,-3.00
2023-02-05T21:32:16.214Z,-3.20
2023-02-05T21:34:46.099Z,-3.20
2023-02-05T21:37:16.034Z,-3.30
2023-02-05T21:39:50.865Z,-3.30
2023-02-05T21:42:22.571Z,-3.10
2023-02-05T21:44:54.236Z,-3.10
2023-02-05T21:47:24.376Z,-3.20
2023-02-05T21:49:54.261Z,-3.20
2023-02-05T21:52:24.169Z,-3.30
2023-02-05T21:54:56.716Z,-3.30
2023-02-05T21:57:26.923Z,-3.20
2023-02-05T21:59:57.051Z,-3.10
2023-02-05T22:02:26.931Z,-3.10
2023-02-05T22:04:56.955Z,-3.10
2023-02-05T22:07:27.583Z,-3.20
2023-02-05T22:10:00.087Z,-3.40
2023-02-05T22:12:29.970Z,-3.50
2023-02-05T22:14:59.850Z,-3.50
2023-02-05T22:17:29.866Z,-3.40
2023-02-05T22:19:59.773Z,-3.30
2023-02-05T22:22:29.802Z,-3.30
2023-02-05T22:25:02.299Z,-3.20
2023-02-05T22:27:32.571Z,-3.50
2023-02-05T22:30:02.477Z,-3.50
2023-02-05T22:32:32.341Z,-3.50
2023-02-05T22:35:02.188Z,-3.50
2023-02-05T22:37:32.097Z,-3.40
2023-02-05T22:40:07.102Z,-3.50
2023-02-05T22:42:37.000Z,-3.40
2023-02-05T22:45:07.783Z,-3.40
2023-02-05T22:47:37.667Z,-3.40
2023-02-05T22:50:08.942Z,-3.30
2023-02-05T22:52:38.853Z,-3.30
2023-02-05T22:55:11.652Z,-3.30
2023-02-05T22:57:41.512Z,-3.50
2023-02-05T23:00:13.542Z,-3.50
2023-02-05T23:02:43.408Z,-3.50
2023-02-05T23:05:13.383Z,-3.50
2023-02-05T23:07:43.296Z,-3.50
2023-02-05T23:10:15.819Z,-3.60
2023-02-05T23:12:45.688Z,-3.60
2023-02-05T23:15:15.852Z,-3.50
2023-02-05T23:17:46.053Z,-3.50
2023-02-05T23:20:16.766Z,-3.40
2023-02-05T23:22:46.980Z,-3.50
2023-02-05T23:25:19.714Z,-3.50
2023-02-05T23:27:49.732Z,-3.40
2023-02-05T23:30:19.897Z,-3.50
2023-02-05T23:32:49.777Z,-3.60
2023-02-05T23:35:19.867Z,-3.60
2023-02-05T23:37:49.807Z,-3.50
2023-02-05T23:40:22.681Z,-3.70
2023-02-05T23:42:52.616Z,-3.70
2023-02-05T23:45:22.530Z,-3.70
2023-02-05T23:47:52.479Z,-3.70
2023-02-05T23:50:22.354Z,-3.60
2023-02-05T23:52:52.221Z,-3.50
2023-02-05T23:55:24.682Z,-3.50
2023-02-05T23:57:54.540Z,-3.60
